sensor_id;sensor_type;location;lat;lon;timestamp;pressure;altitude;pressure_sealevel;temperature;humidity
3524;BME280;1776;53.330;11.498;2023-07-30T00:01:13;25321.59;;;-147.39;72.26
3524;BME280;1776;53.330;11.498;2023-07-30T00:03:38;25311.44;;;-147.39;72.98
3524;BME280;1776;53.330;11.498;2023-07-30T00:06:03;25274.81;;;-147.39;73.38
3524;BME280;1776;53.330;11.498;2023-07-30T00:08:29;25284.97;;;-147.39;73.33
3524;BME280;1776;53.330;11.498;2023-07-30T00:10:56;25256.50;;;-147.39;73.82
3524;BME280;1776;53.330;11.498;2023-07-30T00:13:21;25331.75;;;-147.39;73.93
3524;BME280;1776;53.330;11.498;2023-07-30T00:15:47;25280.91;;;-147.39;73.87
3524;BME280;1776;53.330;11.498;2023-07-30T00:18:13;25252.44;;;-147.39;73.95
3524;BME280;1776;53.330;11.498;2023-07-30T00:20:39;25276.84;;;-147.39;73.78
3524;BME280;1776;53.330;11.498;2023-07-30T00:23:04;25311.44;;;-147.39;73.53
3524;BME280;1776;53.330;11.498;2023-07-30T00:25:29;25264.66;;;-147.39;73.38
3524;BME280;1776;53.330;11.498;2023-07-30T00:27:55;25264.66;;;-147.39;73.76
3524;BME280;1776;53.330;11.498;2023-07-30T00:30:20;25276.84;;;-147.39;73.34
3524;BME280;1776;53.330;11.498;2023-07-30T00:32:45;25254.47;;;-147.39;73.18
3524;BME280;1776;53.330;11.498;2023-07-30T00:35:10;25311.44;;;-147.39;73.33
3524;BME280;1776;53.330;11.498;2023-07-30T00:37:36;25262.59;;;-147.39;73.39
3524;BME280;1776;53.330;11.498;2023-07-30T00:40:02;25221.94;;;-147.39;73.44
3524;BME280;1776;53.330;11.498;2023-07-30T00:42:28;25341.94;;;-147.39;73.85
3524;BME280;1776;53.330;11.498;2023-07-30T00:44:53;25179.22;;;-147.39;74.38
3524;BME280;1776;53.330;11.498;2023-07-30T00:47:18;25240.25;;;-147.39;74.53
3524;BME280;1776;53.330;11.498;2023-07-30T00:49:44;25215.84;;;-147.39;74.37
3524;BME280;1776;53.330;11.498;2023-07-30T00:52:10;25179.22;;;-147.39;74.67
3524;BME280;1776;53.330;11.498;2023-07-30T00:54:36;25272.78;;;-147.39;74.87
3524;BME280;1776;53.330;11.498;2023-07-30T00:57:01;24857.88;;;-147.39;74.70
3524;BME280;1776;53.330;11.498;2023-07-30T00:59:27;25228.03;;;-147.39;75.02
3524;BME280;1776;53.330;11.498;2023-07-30T01:01:53;25223.97;;;-147.39;74.77
3524;BME280;1776;53.330;11.498;2023-07-30T01:04:18;25177.19;;;-147.39;74.55
3524;BME280;1776;53.330;11.498;2023-07-30T01:06:44;25191.44;;;-147.39;74.38
3524;BME280;1776;53.330;11.498;2023-07-30T01:09:10;25179.22;;;-147.39;74.89
3524;BME280;1776;53.330;11.498;2023-07-30T01:11:36;25160.91;;;-147.39;75.20
3524;BME280;1776;53.330;11.498;2023-07-30T01:14:02;25195.50;;;-147.39;75.29
3524;BME280;1776;53.330;11.498;2023-07-30T01:16:28;25177.19;;;-147.39;75.60
3524;BME280;1776;53.330;11.498;2023-07-30T01:18:54;25136.50;;;-147.39;75.31
3524;BME280;1776;53.330;11.498;2023-07-30T01:21:19;25169.06;;;-147.39;74.99
3524;BME280;1776;53.330;11.498;2023-07-30T01:23:44;25179.22;;;-147.39;74.70
3524;BME280;1776;53.330;11.498;2023-07-30T01:26:19;25195.50;;;-147.39;74.29
3524;BME280;1776;53.330;11.498;2023-07-30T01:28:49;25197.53;;;-147.39;73.71
3524;BME280;1776;53.330;11.498;2023-07-30T01:31:17;25317.53;;;-147.39;73.52
3524;BME280;1776;53.330;11.498;2023-07-30T01:33:46;25246.34;;;-147.39;73.15
3524;BME280;1776;53.330;11.498;2023-07-30T01:36:15;25232.09;;;-147.39;72.80
3524;BME280;1776;53.330;11.498;2023-07-30T01:38:42;25248.38;;;-147.39;72.77
3524;BME280;1776;53.330;11.498;2023-07-30T01:41:08;25246.34;;;-147.39;72.48
3524;BME280;1776;53.330;11.498;2023-07-30T01:43:33;25199.56;;;-147.39;72.51
3524;BME280;1776;53.330;11.498;2023-07-30T01:45:58;25232.09;;;-147.39;72.51
3524;BME280;1776;53.330;11.498;2023-07-30T01:48:24;25244.31;;;-147.39;72.62
3524;BME280;1776;53.330;11.498;2023-07-30T01:50:49;25221.94;;;-147.39;72.86
3524;BME280;1776;53.330;11.498;2023-07-30T01:53:14;24752.13;;;-147.39;72.94
3524;BME280;1776;53.330;11.498;2023-07-30T01:55:39;25195.50;;;-147.39;72.93
3524;BME280;1776;53.330;11.498;2023-07-30T01:58:09;25038.88;;;-147.39;72.86
3524;BME280;1776;53.330;11.498;2023-07-30T02:00:35;25201.59;;;-147.39;73.29
3524;BME280;1776;53.330;11.498;2023-07-30T02:03:00;25171.09;;;-147.39;73.81
3524;BME280;1776;53.330;11.498;2023-07-30T02:05:25;25171.09;;;-147.39;73.94
3524;BME280;1776;53.330;11.498;2023-07-30T02:07:51;25175.16;;;-147.39;74.01
3524;BME280;1776;53.330;11.498;2023-07-30T02:10:17;25012.44;;;-147.39;73.74
3524;BME280;1776;53.330;11.498;2023-07-30T02:12:42;25146.69;;;-147.39;74.07
3524;BME280;1776;53.330;11.498;2023-07-30T02:15:08;25156.84;;;-147.39;73.85
3524;BME280;1776;53.330;11.498;2023-07-30T02:17:33;25150.75;;;-147.39;73.56
3524;BME280;1776;53.330;11.498;2023-07-30T02:19:58;25154.81;;;-147.39;73.25
3524;BME280;1776;53.330;11.498;2023-07-30T02:22:23;25152.78;;;-147.39;72.95
3524;BME280;1776;53.330;11.498;2023-07-30T02:24:49;25162.94;;;-147.39;73.06
3524;BME280;1776;53.330;11.498;2023-07-30T02:27:14;25213.78;;;-147.39;72.68
3524;BME280;1776;53.330;11.498;2023-07-30T02:29:40;25169.06;;;-147.39;72.67
3524;BME280;1776;53.330;11.498;2023-07-30T02:32:06;25171.09;;;-147.39;72.63
3524;BME280;1776;53.330;11.498;2023-07-30T02:34:31;25156.84;;;-147.39;72.63
3524;BME280;1776;53.330;11.498;2023-07-30T02:36:56;25154.81;;;-147.39;72.93
3524;BME280;1776;53.330;11.498;2023-07-30T02:39:22;25134.47;;;-147.39;73.21
3524;BME280;1776;53.330;11.498;2023-07-30T02:41:47;25193.47;;;-147.39;73.19
3524;BME280;1776;53.330;11.498;2023-07-30T02:44:12;25203.63;;;-147.39;73.28
3524;BME280;1776;53.330;11.498;2023-07-30T02:46:37;25132.44;;;-147.39;73.84
3524;BME280;1776;53.330;11.498;2023-07-30T02:49:03;25085.66;;;-147.39;74.48
3524;BME280;1776;53.330;11.498;2023-07-30T02:51:28;25079.56;;;-147.39;74.64
3524;BME280;1776;53.330;11.498;2023-07-30T02:53:57;25148.72;;;-147.39;74.81
3524;BME280;1776;53.330;11.498;2023-07-30T02:56:23;25089.72;;;-147.39;75.14
3524;BME280;1776;53.330;11.498;2023-07-30T02:58:48;25085.66;;;-147.39;75.09
3524;BME280;1776;53.330;11.498;2023-07-30T03:01:13;25069.41;;;-147.39;75.30
3524;BME280;1776;53.330;11.498;2023-07-30T03:03:39;25128.38;;;-147.39;76.10
3524;BME280;1776;53.330;11.498;2023-07-30T03:06:04;25057.19;;;-147.39;76.17
3524;BME280;1776;53.330;11.498;2023-07-30T03:08:29;25022.63;;;-147.39;76.84
3524;BME280;1776;53.330;11.498;2023-07-30T03:10:57;25028.72;;;-147.39;76.86
3524;BME280;1776;53.330;11.498;2023-07-30T03:13:23;25020.59;;;-147.39;76.89
3524;BME280;1776;53.330;11.498;2023-07-30T03:15:48;24973.81;;;-147.39;77.67
3524;BME280;1776;53.330;11.498;2023-07-30T03:18:13;24961.59;;;-147.39;78.32
3524;BME280;1776;53.330;11.498;2023-07-30T03:20:38;24927.03;;;-147.39;78.66
3524;BME280;1776;53.330;11.498;2023-07-30T03:23:04;24959.56;;;-147.39;78.71
3524;BME280;1776;53.330;11.498;2023-07-30T03:25:29;24914.84;;;-147.39;78.69
3524;BME280;1776;53.330;11.498;2023-07-30T03:27:54;24927.03;;;-147.39;78.61
3524;BME280;1776;53.330;11.498;2023-07-30T03:30:19;24959.56;;;-147.39;78.70
3524;BME280;1776;53.330;11.498;2023-07-30T03:32:45;24945.34;;;-147.39;78.84
3524;BME280;1776;53.330;11.498;2023-07-30T03:35:10;24986.00;;;-147.39;78.70
3524;BME280;1776;53.330;11.498;2023-07-30T03:37:35;24870.09;;;-147.39;79.18
3524;BME280;1776;53.330;11.498;2023-07-30T03:40:01;24941.28;;;-147.39;79.16
3524;BME280;1776;53.330;11.498;2023-07-30T03:42:26;24851.78;;;-147.39;79.93
3524;BME280;1776;53.330;11.498;2023-07-30T03:44:51;24849.75;;;-147.39;80.51
3524;BME280;1776;53.330;11.498;2023-07-30T03:47:16;24815.19;;;-147.39;80.41
3524;BME280;1776;53.330;11.498;2023-07-30T03:49:42;24908.72;;;-147.39;80.31
3524;BME280;1776;53.330;11.498;2023-07-30T03:52:07;25014.47;;;-147.39;80.09
3524;BME280;1776;53.330;11.498;2023-07-30T03:54:32;24835.53;;;-147.39;79.99
3524;BME280;1776;53.330;11.498;2023-07-30T03:56:57;24827.38;;;-147.39;80.25
3524;BME280;1776;53.330;11.498;2023-07-30T03:59:23;24886.38;;;-147.39;79.96
3524;BME280;1776;53.330;11.498;2023-07-30T04:01:48;24683.00;;;-147.39;79.98
3524;BME280;1776;53.330;11.498;2023-07-30T04:04:14;24630.13;;;-147.39;79.68
3524;BME280;1776;53.330;11.498;2023-07-30T04:06:39;24857.88;;;-147.39;79.59
3524;BME280;1776;53.330;11.498;2023-07-30T04:09:04;24847.72;;;-147.39;79.40
3524;BME280;1776;53.330;11.498;2023-07-30T04:11:30;24898.56;;;-147.39;79.37
3524;BME280;1776;53.330;11.498;2023-07-30T04:13:55;24861.97;;;-147.39;79.16
3524;BME280;1776;53.330;11.498;2023-07-30T04:16:20;24908.72;;;-147.39;79.02
3524;BME280;1776;53.330;11.498;2023-07-30T04:18:45;24843.66;;;-147.39;78.67
3524;BME280;1776;53.330;11.498;2023-07-30T04:21:11;24866.03;;;-147.39;78.57
3524;BME280;1776;53.330;11.498;2023-07-30T04:23:36;24986.00;;;-147.39;78.30
3524;BME280;1776;53.330;11.498;2023-07-30T04:26:01;24951.44;;;-147.39;78.07
3524;BME280;1776;53.330;11.498;2023-07-30T04:28:26;24945.34;;;-147.39;77.88
3524;BME280;1776;53.330;11.498;2023-07-30T04:30:52;24929.06;;;-147.39;77.96
3524;BME280;1776;53.330;11.498;2023-07-30T04:33:17;24886.38;;;-147.39;78.61
3524;BME280;1776;53.330;11.498;2023-07-30T04:35:42;24912.81;;;-147.39;78.36
3524;BME280;1776;53.330;11.498;2023-07-30T04:38:08;24878.22;;;-147.39;79.05
3524;BME280;1776;53.330;11.498;2023-07-30T04:40:33;24916.88;;;-147.39;79.72
3524;BME280;1776;53.330;11.498;2023-07-30T04:42:58;24835.53;;;-147.39;80.04
3524;BME280;1776;53.330;11.498;2023-07-30T04:45:23;24792.81;;;-147.39;80.75
3524;BME280;1776;53.330;11.498;2023-07-30T04:47:49;24977.88;;;-147.39;80.75
3524;BME280;1776;53.330;11.498;2023-07-30T04:50:14;24784.69;;;-147.39;80.39
3524;BME280;1776;53.330;11.498;2023-07-30T04:52:39;24807.03;;;-147.39;80.10
3524;BME280;1776;53.330;11.498;2023-07-30T04:55:05;24809.09;;;-147.39;80.31
3524;BME280;1776;53.330;11.498;2023-07-30T04:57:30;24802.97;;;-147.39;80.22
3524;BME280;1776;53.330;11.498;2023-07-30T04:59:56;24815.19;;;-147.39;80.16
3524;BME280;1776;53.330;11.498;2023-07-30T05:02:21;24758.25;;;-147.39;80.29
3524;BME280;1776;53.330;11.498;2023-07-30T05:04:46;24794.84;;;-147.39;80.12
3524;BME280;1776;53.330;11.498;2023-07-30T05:07:11;24870.09;;;-147.39;80.19
3524;BME280;1776;53.330;11.498;2023-07-30T05:09:37;24857.88;;;-147.39;79.92
3524;BME280;1776;53.330;11.498;2023-07-30T05:12:02;24796.88;;;-147.39;80.39
3524;BME280;1776;53.330;11.498;2023-07-30T05:14:27;24798.91;;;-147.39;80.56
3524;BME280;1776;53.330;11.498;2023-07-30T05:16:53;24798.91;;;-147.39;80.08
3524;BME280;1776;53.330;11.498;2023-07-30T05:19:18;24768.41;;;-147.39;80.62
3524;BME280;1776;53.330;11.498;2023-07-30T05:21:43;24542.69;;;-147.39;80.81
3524;BME280;1776;53.330;11.498;2023-07-30T05:24:09;24744.00;;;-147.39;81.19
3524;BME280;1776;53.330;11.498;2023-07-30T05:26:34;24786.72;;;-147.39;81.10
3524;BME280;1776;53.330;11.498;2023-07-30T05:28:59;24782.66;;;-147.39;81.28
3524;BME280;1776;53.330;11.498;2023-07-30T05:31:25;24794.84;;;-147.39;81.08
3524;BME280;1776;53.330;11.498;2023-07-30T05:33:51;24813.16;;;-147.39;81.35
3524;BME280;1776;53.330;11.498;2023-07-30T05:36:16;24760.28;;;-147.39;81.30
3524;BME280;1776;53.330;11.498;2023-07-30T05:38:41;24802.97;;;-147.39;81.13
3524;BME280;1776;53.330;11.498;2023-07-30T05:41:07;24744.00;;;-147.39;81.21
3524;BME280;1776;53.330;11.498;2023-07-30T05:43:32;24853.81;;;-147.39;80.52
3524;BME280;1776;53.330;11.498;2023-07-30T05:45:57;24955.50;;;-147.39;80.36
3524;BME280;1776;53.330;11.498;2023-07-30T05:48:22;24817.22;;;-147.39;80.37
3524;BME280;1776;53.330;11.498;2023-07-30T05:50:48;24920.94;;;-147.39;79.81
3524;BME280;1776;53.330;11.498;2023-07-30T05:53:14;24855.84;;;-147.39;79.32
3524;BME280;1776;53.330;11.498;2023-07-30T05:55:39;24967.72;;;-147.39;79.25
3524;BME280;1776;53.330;11.498;2023-07-30T05:58:04;24927.03;;;-147.39;78.84
3524;BME280;1776;53.330;11.498;2023-07-30T06:00:29;24870.09;;;-147.39;78.77
3524;BME280;1776;53.330;11.498;2023-07-30T06:02:55;24910.75;;;-147.39;78.96
3524;BME280;1776;53.330;11.498;2023-07-30T06:05:20;24807.03;;;-147.39;78.56
3524;BME280;1776;53.330;11.498;2023-07-30T06:07:45;24622.00;;;-147.39;78.18
3524;BME280;1776;53.330;11.498;2023-07-30T06:10:11;24943.31;;;-147.39;77.88
3524;BME280;1776;53.330;11.498;2023-07-30T06:12:36;24983.97;;;-147.39;77.21
3524;BME280;1776;53.330;11.498;2023-07-30T06:15:01;24959.56;;;-147.39;77.63
3524;BME280;1776;53.330;11.498;2023-07-30T06:17:27;24957.53;;;-147.39;77.14
3524;BME280;1776;53.330;11.498;2023-07-30T06:19:52;24973.81;;;-147.39;76.93
3524;BME280;1776;53.330;11.498;2023-07-30T06:22:17;24992.13;;;-147.39;76.69
3524;BME280;1776;53.330;11.498;2023-07-30T06:24:43;25038.88;;;-147.39;76.03
3524;BME280;1776;53.330;11.498;2023-07-30T06:27:09;25053.13;;;-147.39;76.05
3524;BME280;1776;53.330;11.498;2023-07-30T06:29:35;25089.72;;;-147.39;75.18
3524;BME280;1776;53.330;11.498;2023-07-30T06:32:00;25124.31;;;-147.39;74.99
3524;BME280;1776;53.330;11.498;2023-07-30T06:34:26;25101.94;;;-147.39;73.85
3524;BME280;1776;53.330;11.498;2023-07-30T06:36:51;25114.13;;;-147.39;73.72
3524;BME280;1776;53.330;11.498;2023-07-30T06:39:16;25158.88;;;-147.39;73.50
3524;BME280;1776;53.330;11.498;2023-07-30T06:44:44;25138.53;;;-147.39;72.96
3524;BME280;1776;53.330;11.498;2023-07-30T06:47:10;25228.03;;;-147.39;72.64
3524;BME280;1776;53.330;11.498;2023-07-30T06:49:35;25209.72;;;-147.39;72.54
3524;BME280;1776;53.330;11.498;2023-07-30T06:52:00;25248.38;;;-147.39;72.62
3524;BME280;1776;53.330;11.498;2023-07-30T06:54:28;25203.63;;;-147.39;72.90
3524;BME280;1776;53.330;11.498;2023-07-30T06:56:53;25203.63;;;-147.39;73.09
3524;BME280;1776;53.330;11.498;2023-07-30T06:59:18;25215.84;;;-147.39;72.35
3524;BME280;1776;53.330;11.498;2023-07-30T07:01:44;25234.13;;;-147.39;72.66
3524;BME280;1776;53.330;11.498;2023-07-30T07:04:09;25276.84;;;-147.39;72.45
3524;BME280;1776;53.330;11.498;2023-07-30T07:06:34;25321.59;;;-147.39;71.84
3524;BME280;1776;53.330;11.498;2023-07-30T07:09:00;25252.44;;;-147.39;70.77
3524;BME280;1776;53.330;11.498;2023-07-30T07:11:25;25258.53;;;-147.39;71.00
3524;BME280;1776;53.330;11.498;2023-07-30T07:13:50;25421.25;;;-147.39;70.89
3524;BME280;1776;53.330;11.498;2023-07-30T07:16:16;25455.84;;;-147.39;70.84
3524;BME280;1776;53.330;11.498;2023-07-30T07:18:41;25289.06;;;-147.39;71.15
3524;BME280;1776;53.330;11.498;2023-07-30T07:21:06;25311.44;;;-147.39;70.33
3524;BME280;1776;53.330;11.498;2023-07-30T07:23:33;25329.72;;;-147.39;70.70
3524;BME280;1776;53.330;11.498;2023-07-30T07:25:58;25380.56;;;-147.39;70.44
3524;BME280;1776;53.330;11.498;2023-07-30T07:28:23;25337.88;;;-147.39;70.01
3524;BME280;1776;53.330;11.498;2023-07-30T07:30:48;25400.91;;;-147.39;69.84
3524;BME280;1776;53.330;11.498;2023-07-30T07:33:14;25398.88;;;-147.39;69.42
3524;BME280;1776;53.330;11.498;2023-07-30T07:35:40;25439.56;;;-147.39;68.51
3524;BME280;1776;53.330;11.498;2023-07-30T07:38:05;25488.38;;;-147.39;68.09
3524;BME280;1776;53.330;11.498;2023-07-30T07:40:30;25451.75;;;-147.39;67.78
3524;BME280;1776;53.330;11.498;2023-07-30T07:42:56;25535.16;;;-147.39;67.49
3524;BME280;1776;53.330;11.498;2023-07-30T07:45:22;25581.94;;;-147.39;67.17
3524;BME280;1776;53.330;11.498;2023-07-30T07:47:47;25569.75;;;-147.39;65.76
3524;BME280;1776;53.330;11.498;2023-07-30T07:50:12;25628.72;;;-147.39;65.74
3524;BME280;1776;53.330;11.498;2023-07-30T07:52:37;25602.28;;;-147.39;64.43
3524;BME280;1776;53.330;11.498;2023-07-30T07:55:04;25708.06;;;-147.39;64.90
3524;BME280;1776;53.330;11.498;2023-07-30T07:57:29;25472.09;;;-147.39;64.20
3524;BME280;1776;53.330;11.498;2023-07-30T07:59:56;25669.41;;;-147.39;63.45
3524;BME280;1776;53.330;11.498;2023-07-30T08:02:21;25655.16;;;-147.39;63.52
3524;BME280;1776;53.330;11.498;2023-07-30T08:04:46;25659.25;;;-147.39;63.33
3524;BME280;1776;53.330;11.498;2023-07-30T08:07:12;25716.19;;;-147.39;63.54
3524;BME280;1776;53.330;11.498;2023-07-30T08:09:37;25685.69;;;-147.39;63.70
3524;BME280;1776;53.330;11.498;2023-07-30T08:12:02;25767.03;;;-147.39;63.27
3524;BME280;1776;53.330;11.498;2023-07-30T08:14:29;25756.88;;;-147.39;62.73
3524;BME280;1776;53.330;11.498;2023-07-30T08:16:54;25748.75;;;-147.39;63.03
3524;BME280;1776;53.330;11.498;2023-07-30T08:19:20;25819.94;;;-147.39;61.83
3524;BME280;1776;53.330;11.498;2023-07-30T08:21:45;25824.00;;;-147.39;61.12
3524;BME280;1776;53.330;11.498;2023-07-30T08:24:10;25744.66;;;-147.39;61.71
3524;BME280;1776;53.330;11.498;2023-07-30T08:26:35;25783.31;;;-147.39;61.98
3524;BME280;1776;53.330;11.498;2023-07-30T08:29:01;25797.56;;;-147.39;61.95
3524;BME280;1776;53.330;11.498;2023-07-30T08:31:26;25813.81;;;-147.39;62.33
3524;BME280;1776;53.330;11.498;2023-07-30T08:33:51;25830.09;;;-147.39;61.10
3524;BME280;1776;53.330;11.498;2023-07-30T08:36:17;25826.03;;;-147.39;61.79
3524;BME280;1776;53.330;11.498;2023-07-30T08:38:42;25880.97;;;-147.39;61.42
3524;BME280;1776;53.330;11.498;2023-07-30T08:41:08;25978.59;;;-147.39;60.13
3524;BME280;1776;53.330;11.498;2023-07-30T08:43:34;25956.22;;;-147.39;59.59
3524;BME280;1776;53.330;11.498;2023-07-30T08:46:00;25937.91;;;-147.39;59.78
3524;BME280;1776;53.330;11.498;2023-07-30T08:48:26;26025.38;;;-147.39;59.46
3524;BME280;1776;53.330;11.498;2023-07-30T08:50:52;25937.91;;;-147.39;59.05
3524;BME280;1776;53.330;11.498;2023-07-30T08:53:17;26064.03;;;-147.39;58.67
3524;BME280;1776;53.330;11.498;2023-07-30T08:55:43;26049.81;;;-147.39;58.33
3524;BME280;1776;53.330;11.498;2023-07-30T08:58:09;25966.41;;;-147.39;59.94
3524;BME280;1776;53.330;11.498;2023-07-30T09:00:37;25929.78;;;-147.39;60.46
3524;BME280;1776;53.330;11.498;2023-07-30T09:03:04;25915.53;;;-147.39;59.91
3524;BME280;1776;53.330;11.498;2023-07-30T09:05:30;26013.19;;;-147.39;59.77
3524;BME280;1776;53.330;11.498;2023-07-30T09:07:56;26027.41;;;-147.39;59.88
3524;BME280;1776;53.330;11.498;2023-07-30T09:10:22;26037.59;;;-147.39;58.65
3524;BME280;1776;53.330;11.498;2023-07-30T09:12:55;26092.53;;;-147.39;58.19
3524;BME280;1776;53.330;11.498;2023-07-30T09:15:29;26149.47;;;-147.39;56.84
3524;BME280;1776;53.330;11.498;2023-07-30T09:17:56;26092.53;;;-147.39;57.40
3524;BME280;1776;53.330;11.498;2023-07-30T09:20:21;25663.31;;;-147.39;57.70
3524;BME280;1776;53.330;11.498;2023-07-30T09:22:46;25982.66;;;-147.39;57.98
3524;BME280;1776;53.330;11.498;2023-07-30T09:25:14;26029.47;;;-147.39;58.68
3524;BME280;1776;53.330;11.498;2023-07-30T09:27:41;26163.72;;;-147.39;58.55
3524;BME280;1776;53.330;11.498;2023-07-30T09:30:07;26110.81;;;-147.39;56.97
3524;BME280;1776;53.330;11.498;2023-07-30T09:32:34;26352.91;;;-147.39;56.96
3524;BME280;1776;53.330;11.498;2023-07-30T09:35:10;26167.78;;;-147.39;55.75
3524;BME280;1776;53.330;11.498;2023-07-30T09:37:40;26239.00;;;-147.39;56.50
3524;BME280;1776;53.330;11.498;2023-07-30T09:40:07;26298.00;;;-147.39;55.67
3524;BME280;1776;53.330;11.498;2023-07-30T09:42:34;26295.97;;;-147.39;54.77
3524;BME280;1776;53.330;11.498;2023-07-30T09:45:00;26279.69;;;-147.39;55.91
3524;BME280;1776;53.330;11.498;2023-07-30T09:47:26;26328.50;;;-147.39;55.39
3524;BME280;1776;53.330;11.498;2023-07-30T09:49:53;26310.19;;;-147.39;55.00
3524;BME280;1776;53.330;11.498;2023-07-30T09:52:19;26350.88;;;-147.39;54.58
3524;BME280;1776;53.330;11.498;2023-07-30T09:54:44;26293.91;;;-147.39;54.62
3524;BME280;1776;53.330;11.498;2023-07-30T09:57:10;26293.91;;;-147.39;55.16
3524;BME280;1776;53.330;11.498;2023-07-30T09:59:35;26328.50;;;-147.39;54.66
3524;BME280;1776;53.330;11.498;2023-07-30T10:02:01;26354.94;;;-147.39;53.62
3524;BME280;1776;53.330;11.498;2023-07-30T10:04:26;26523.81;;;-147.39;53.79
3524;BME280;1776;53.330;11.498;2023-07-30T10:07:03;26379.38;;;-147.39;53.89
3524;BME280;1776;53.330;11.498;2023-07-30T10:09:33;26363.09;;;-147.39;54.27
3524;BME280;1776;53.330;11.498;2023-07-30T10:12:00;26420.06;;;-147.39;52.91
3524;BME280;1776;53.330;11.498;2023-07-30T10:14:27;26381.41;;;-147.39;52.50
3524;BME280;1776;53.330;11.498;2023-07-30T10:16:54;26424.13;;;-147.39;53.10
3524;BME280;1776;53.330;11.498;2023-07-30T10:19:25;26422.09;;;-147.39;53.64
3524;BME280;1776;53.330;11.498;2023-07-30T10:21:50;26397.69;;;-147.39;53.55
3524;BME280;1776;53.330;11.498;2023-07-30T10:24:16;26475.00;;;-147.39;52.99
3524;BME280;1776;53.330;11.498;2023-07-30T10:26:41;26416.00;;;-147.39;53.06
3524;BME280;1776;53.330;11.498;2023-07-30T10:29:15;26426.16;;;-147.39;53.70
3524;BME280;1776;53.330;11.498;2023-07-30T10:31:42;26464.81;;;-147.39;53.08
3524;BME280;1776;53.330;11.498;2023-07-30T10:34:09;26580.78;;;-147.39;52.89
3524;BME280;1776;53.330;11.498;2023-07-30T10:36:43;26568.56;;;-147.39;51.93
3524;BME280;1776;53.330;11.498;2023-07-30T10:39:20;26568.56;;;-147.39;51.71
3524;BME280;1776;53.330;11.498;2023-07-30T10:41:51;26578.75;;;-147.39;50.93
3524;BME280;1776;53.330;11.498;2023-07-30T10:44:21;26566.53;;;-147.39;50.55
3524;BME280;1776;53.330;11.498;2023-07-30T10:46:47;26503.47;;;-147.39;52.04
3524;BME280;1776;53.330;11.498;2023-07-30T10:49:12;26529.91;;;-147.39;51.63
3524;BME280;1776;53.330;11.498;2023-07-30T10:51:38;26593.00;;;-147.39;51.67
3524;BME280;1776;53.330;11.498;2023-07-30T10:54:06;26525.84;;;-147.39;51.47
3524;BME280;1776;53.330;11.498;2023-07-30T10:56:35;26517.72;;;-147.39;52.36
3524;BME280;1776;53.330;11.498;2023-07-30T10:59:03;26534.00;;;-147.39;52.17
3524;BME280;1776;53.330;11.498;2023-07-30T11:01:28;26513.66;;;-147.39;52.46
3524;BME280;1776;53.330;11.498;2023-07-30T11:03:54;26521.78;;;-147.39;52.06
3524;BME280;1776;53.330;11.498;2023-07-30T11:06:23;26507.53;;;-147.39;51.65
3524;BME280;1776;53.330;11.498;2023-07-30T11:08:49;26625.53;;;-147.39;52.12
3524;BME280;1776;53.330;11.498;2023-07-30T11:11:15;26247.13;;;-147.39;52.40
3524;BME280;1776;53.330;11.498;2023-07-30T11:13:43;26544.16;;;-147.39;52.41
3524;BME280;1776;53.330;11.498;2023-07-30T11:16:11;26584.84;;;-147.39;50.75
3524;BME280;1776;53.330;11.498;2023-07-30T11:18:37;26609.28;;;-147.39;50.16
3524;BME280;1776;53.330;11.498;2023-07-30T11:21:07;26245.09;;;-147.39;49.69
3524;BME280;1776;53.330;11.498;2023-07-30T11:23:34;26656.06;;;-147.39;51.07
3524;BME280;1776;53.330;11.498;2023-07-30T11:26:01;26570.63;;;-147.39;50.52
3524;BME280;1776;53.330;11.498;2023-07-30T11:28:31;26595.03;;;-147.39;50.66
3524;BME280;1776;53.330;11.498;2023-07-30T11:31:01;26668.28;;;-147.39;50.42
3524;BME280;1776;53.330;11.498;2023-07-30T11:33:27;26645.88;;;-147.39;50.37
3524;BME280;1776;53.330;11.498;2023-07-30T11:35:54;26686.59;;;-147.39;50.26
3524;BME280;1776;53.330;11.498;2023-07-30T11:38:21;26735.41;;;-147.39;50.08
3524;BME280;1776;53.330;11.498;2023-07-30T11:40:47;26672.34;;;-147.39;49.03
3524;BME280;1776;53.330;11.498;2023-07-30T11:43:13;26790.34;;;-147.39;50.17
3524;BME280;1776;53.330;11.498;2023-07-30T11:45:38;26749.66;;;-147.39;50.46
3524;BME280;1776;53.330;11.498;2023-07-30T11:48:10;26637.75;;;-147.39;49.72
3524;BME280;1776;53.330;11.498;2023-07-30T11:50:51;26700.81;;;-147.39;49.09
3524;BME280;1776;53.330;11.498;2023-07-30T11:53:18;26759.84;;;-147.39;49.58
3524;BME280;1776;53.330;11.498;2023-07-30T11:55:44;26613.34;;;-147.39;50.19
3524;BME280;1776;53.330;11.498;2023-07-30T11:58:11;26511.59;;;-147.39;50.37
3524;BME280;1776;53.330;11.498;2023-07-30T12:00:38;26674.38;;;-147.39;50.08
3524;BME280;1776;53.330;11.498;2023-07-30T12:03:05;26576.72;;;-147.39;50.58
3524;BME280;1776;53.330;11.498;2023-07-30T12:05:36;26525.84;;;-147.39;50.37
3524;BME280;1776;53.330;11.498;2023-07-30T12:08:02;26599.09;;;-147.39;50.70
3524;BME280;1776;53.330;11.498;2023-07-30T12:10:41;26568.56;;;-147.39;50.55
3524;BME280;1776;53.330;11.498;2023-07-30T12:13:18;26542.13;;;-147.39;50.72
3524;BME280;1776;53.330;11.498;2023-07-30T12:15:50;26639.78;;;-147.39;50.64
3524;BME280;1776;53.330;11.498;2023-07-30T12:18:16;26540.09;;;-147.39;50.62
3524;BME280;1776;53.330;11.498;2023-07-30T12:20:41;26623.50;;;-147.39;50.18
3524;BME280;1776;53.330;11.498;2023-07-30T12:23:06;26572.66;;;-147.39;50.65
3524;BME280;1776;53.330;11.498;2023-07-30T12:25:32;26633.69;;;-147.39;49.95
3524;BME280;1776;53.330;11.498;2023-07-30T12:27:57;26649.97;;;-147.39;50.08
3524;BME280;1776;53.330;11.498;2023-07-30T12:30:23;26647.94;;;-147.39;49.67
3524;BME280;1776;53.330;11.498;2023-07-30T12:32:48;26664.19;;;-147.39;49.80
3524;BME280;1776;53.330;11.498;2023-07-30T12:35:14;26652.00;;;-147.39;50.31
3524;BME280;1776;53.330;11.498;2023-07-30T12:37:39;26660.13;;;-147.39;50.10
3524;BME280;1776;53.330;11.498;2023-07-30T12:40:05;26639.78;;;-147.39;50.36
3524;BME280;1776;53.330;11.498;2023-07-30T12:42:30;26654.03;;;-147.39;49.76
3524;BME280;1776;53.330;11.498;2023-07-30T12:44:57;26639.78;;;-147.39;50.01
3524;BME280;1776;53.330;11.498;2023-07-30T12:47:22;26609.28;;;-147.39;49.38